createdAt,value
2023-01-19T00:01:06.586Z,25.13
2023-01-19T00:03:37.882Z,23.03
2023-01-19T00:06:08.781Z,24.30
2023-01-19T00:08:39.156Z,29.83
2023-01-19T00:11:09.995Z,29.03
2023-01-19T00:13:49.633Z,23.87
2023-01-19T00:16:23.212Z,28.30
2023-01-19T00:18:55.693Z,27.77
2023-01-19T00:21:26.124Z,21.20
2023-01-19T00:23:56.545Z,24.60
2023-01-19T00:26:26.895Z,24.03
2023-01-19T00:29:00.434Z,25.37
2023-01-19T00:31:34.083Z,32.83
2023-01-19T00:34:12.199Z,25.47
2023-01-19T00:36:42.725Z,25.97
2023-01-19T00:39:13.247Z,33.63
2023-01-19T00:41:56.711Z,27.07
2023-01-19T00:44:29.532Z,25.30
2023-01-19T00:47:01.267Z,27.03
2023-01-19T00:49:32.922Z,22.73
2023-01-19T00:52:04.375Z,23.73
2023-01-19T00:54:35.148Z,25.83
2023-01-19T00:57:06.835Z,20.00
2023-01-19T00:59:40.297Z,24.80
2023-01-19T01:02:12.183Z,27.63
2023-01-19T01:04:42.854Z,21.63
2023-01-19T01:07:13.416Z,22.70
2023-01-19T01:09:46.972Z,23.27
2023-01-19T01:12:17.832Z,22.00
2023-01-19T01:14:50.756Z,24.93
2023-01-19T01:17:25.213Z,24.10
2023-01-19T01:19:55.635Z,26.13
2023-01-19T01:22:26.468Z,27.00
2023-01-19T01:24:57.071Z,18.37
2023-01-19T01:27:27.837Z,22.27
2023-01-19T01:30:01.485Z,22.90
2023-01-19T01:32:32.206Z,25.13
2023-01-19T01:35:02.785Z,23.93
2023-01-19T01:37:33.388Z,23.63
2023-01-19T01:40:04.403Z,26.57
2023-01-19T01:42:36.592Z,24.50
2023-01-19T01:45:24.979Z,26.47
2023-01-19T01:47:58.251Z,23.03
2023-01-19T01:50:32.346Z,24.20
2023-01-19T01:53:07.480Z,21.23
2023-01-19T01:55:41.883Z,21.70
2023-01-19T01:58:13.389Z,27.83
2023-01-19T02:00:59.659Z,22.43
2023-01-19T02:03:33.241Z,25.17
2023-01-19T02:06:12.195Z,24.90
2023-01-19T02:09:02.246Z,21.63
2023-01-19T02:11:47.179Z,21.57
2023-01-19T02:14:19.857Z,28.07
2023-01-19T02:16:52.996Z,25.00
2023-01-19T02:19:29.282Z,27.17
2023-01-19T02:22:07.658Z,25.37
2023-01-19T02:24:41.167Z,22.70
2023-01-19T02:27:12.475Z,24.07
2023-01-19T02:29:44.295Z,26.27
2023-01-19T02:32:14.927Z,24.90
2023-01-19T02:34:45.418Z,27.07
2023-01-19T02:37:18.591Z,26.97
2023-01-19T02:39:55.936Z,23.97
2023-01-19T02:42:32.813Z,26.87
2023-01-19T02:45:06.803Z,30.20
2023-01-19T02:47:43.112Z,25.90
2023-01-19T02:50:41.713Z,31.43
2023-01-19T02:53:52.956Z,24.33
2023-01-19T02:56:40.862Z,27.03
2023-01-19T02:59:19.401Z,29.50
2023-01-19T03:02:04.254Z,26.27
2023-01-19T03:04:47.794Z,23.83
2023-01-19T03:07:28.093Z,27.27
2023-01-19T03:10:05.398Z,27.47
2023-01-19T03:12:43.598Z,26.80
2023-01-19T03:15:20.411Z,26.60
2023-01-19T03:17:53.006Z,26.47
2023-01-19T03:20:25.608Z,26.63
2023-01-19T03:23:01.045Z,30.37
2023-01-19T03:25:34.476Z,31.00
2023-01-19T03:28:08.218Z,27.33
2023-01-19T03:30:42.651Z,23.43
2023-01-19T03:33:18.881Z,26.70
2023-01-19T03:35:52.121Z,26.30
2023-01-19T03:38:27.861Z,25.70
2023-01-19T03:41:02.801Z,25.20
2023-01-19T03:43:38.461Z,24.40
2023-01-19T03:46:10.993Z,28.77
2023-01-19T03:48:42.123Z,23.47
2023-01-19T03:51:14.465Z,28.87
2023-01-19T03:53:45.309Z,29.73
2023-01-19T03:56:20.955Z,31.67
2023-01-19T03:58:56.169Z,23.57
2023-01-19T04:01:26.768Z,23.73
2023-01-19T04:03:57.315Z,27.47
2023-01-19T04:06:30.449Z,24.57
2023-01-19T04:09:00.673Z,26.37
2023-01-19T04:11:30.554Z,25.40
2023-01-19T04:14:03.408Z,32.67
2023-01-19T04:16:33.349Z,27.23
2023-01-19T04:19:03.580Z,25.87
2023-01-19T04:21:33.577Z,29.20
2023-01-19T04:24:03.767Z,24.40
2023-01-19T04:26:33.743Z,28.47
2023-01-19T04:29:08.832Z,31.77
2023-01-19T04:31:39.087Z,27.03
2023-01-19T04:34:09.695Z,27.73
2023-01-19T04:36:39.605Z,22.70
2023-01-19T04:39:10.425Z,25.43
2023-01-19T04:41:40.555Z,28.03
2023-01-19T04:44:13.617Z,19.13
2023-01-19T04:46:43.574Z,23.13
2023-01-19T04:49:13.999Z,27.67
2023-01-19T04:51:44.062Z,26.00
2023-01-19T04:54:14.347Z,22.37
2023-01-19T04:56:44.322Z,30.67
2023-01-19T04:59:17.814Z,22.37
2023-01-19T05:01:47.738Z,25.57
2023-01-19T05:04:18.087Z,23.23
2023-01-19T05:06:48.297Z,21.37
2023-01-19T05:09:18.656Z,22.07
2023-01-19T05:11:48.925Z,23.40
2023-01-19T05:14:21.919Z,25.33
2023-01-19T05:16:51.822Z,29.67
2023-01-19T05:19:22.150Z,24.33
2023-01-19T05:21:52.224Z,24.53
2023-01-19T05:24:22.547Z,25.87
2023-01-19T05:26:52.547Z,19.80
2023-01-19T05:29:25.661Z,22.43
2023-01-19T05:31:55.825Z,24.00
2023-01-19T05:34:27.127Z,22.80
2023-01-19T05:36:57.021Z,26.03
2023-01-19T05:39:27.376Z,28.20
2023-01-19T05:41:57.356Z,21.10
2023-01-19T05:44:30.529Z,20.40
2023-01-19T05:47:00.829Z,23.03
2023-01-19T05:49:31.519Z,21.60
2023-01-19T05:52:01.579Z,26.20
2023-01-19T05:54:31.903Z,21.63
2023-01-19T05:57:03.038Z,27.50
2023-01-19T05:59:35.985Z,27.67
2023-01-19T06:02:06.010Z,21.57
2023-01-19T06:04:36.331Z,22.33
2023-01-19T06:07:07.573Z,12.90
2023-01-19T06:09:37.809Z,25.27
2023-01-19T06:12:08.846Z,14.77
2023-01-19T06:14:41.701Z,22.57
2023-01-19T06:17:11.852Z,21.90
2023-01-19T06:19:42.191Z,24.87
2023-01-19T06:22:12.204Z,19.73
2023-01-19T06:24:42.823Z,26.47
2023-01-19T06:27:14.081Z,25.60
2023-01-19T06:29:47.088Z,20.90
2023-01-19T06:32:17.490Z,27.53
2023-01-19T06:34:47.738Z,21.27
2023-01-19T06:37:17.911Z,15.97
2023-01-19T06:39:48.135Z,23.83
2023-01-19T06:42:18.171Z,19.53
2023-01-19T06:44:51.280Z,22.50
2023-01-19T06:47:21.310Z,21.30
2023-01-19T06:49:51.767Z,23.40
2023-01-19T06:52:21.755Z,23.90
2023-01-19T06:54:51.984Z,20.97
2023-01-19T06:57:21.996Z,20.17
2023-01-19T06:59:54.947Z,25.20
2023-01-19T07:02:26.255Z,24.27
2023-01-19T07:04:58.470Z,26.77
2023-01-19T07:07:28.821Z,23.17
2023-01-19T07:09:59.075Z,23.67
2023-01-19T07:12:29.017Z,23.43
2023-01-19T07:15:01.838Z,22.83
2023-01-19T07:17:31.851Z,24.23
2023-01-19T07:20:03.081Z,24.60
2023-01-19T07:22:33.076Z,21.73
2023-01-19T07:25:03.439Z,23.43
2023-01-19T07:27:33.358Z,21.23
2023-01-19T07:30:07.432Z,26.00
2023-01-19T07:32:37.920Z,18.93
2023-01-19T07:35:08.723Z,23.60
2023-01-19T07:37:38.935Z,21.60
2023-01-19T07:40:10.287Z,20.63
2023-01-19T07:42:40.401Z,26.73
2023-01-19T07:45:15.202Z,22.73
2023-01-19T07:47:46.254Z,22.47
2023-01-19T07:50:21.279Z,27.57
2023-01-19T07:52:53.430Z,24.07
2023-01-19T07:55:25.154Z,22.47
2023-01-19T07:57:55.449Z,23.77
2023-01-19T08:00:28.804Z,23.50
2023-01-19T08:03:03.350Z,24.40
2023-01-19T08:05:35.578Z,29.70
2023-01-19T08:08:05.925Z,21.67
2023-01-19T08:10:36.608Z,19.80
2023-01-19T08:13:06.953Z,16.17
2023-01-19T08:15:40.285Z,19.30
2023-01-19T08:18:11.702Z,17.33
2023-01-19T08:20:42.254Z,19.50
2023-01-19T08:23:12.744Z,20.77
2023-01-19T08:25:46.015Z,25.47
2023-01-19T08:28:17.932Z,18.13
2023-01-19T08:30:54.294Z,17.33
2023-01-19T08:33:25.702Z,17.83
2023-01-19T08:35:56.845Z,21.77
2023-01-19T08:38:27.050Z,18.67
2023-01-19T08:40:57.594Z,16.30
2023-01-19T08:43:27.814Z,18.53
2023-01-19T08:46:01.121Z,14.53
2023-01-19T08:48:31.447Z,17.23
2023-01-19T08:51:02.437Z,15.03
2023-01-19T08:53:32.543Z,20.70
2023-01-19T08:56:03.521Z,13.03
2023-01-19T08:58:33.752Z,14.50
2023-01-19T09:01:06.846Z,13.13
2023-01-19T09:03:36.982Z,12.13
2023-01-19T09:06:08.797Z,7.40
2023-01-19T09:08:39.279Z,20.60
2023-01-19T09:11:13.894Z,12.67
2023-01-19T09:13:44.073Z,12.50
2023-01-19T09:16:17.043Z,11.60
2023-01-19T09:18:47.753Z,12.23
2023-01-19T09:21:18.631Z,11.27
2023-01-19T09:23:49.218Z,11.87
2023-01-19T09:26:19.713Z,6.10
2023-01-19T09:28:49.751Z,7.80
2023-01-19T09:31:22.682Z,9.30
2023-01-19T09:33:52.826Z,8.10
2023-01-19T09:36:23.033Z,13.27
2023-01-19T09:38:52.971Z,7.40
2023-01-19T09:41:26.132Z,11.13
2023-01-19T09:43:59.876Z,13.73
2023-01-19T09:46:38.931Z,10.13
2023-01-19T09:49:16.295Z,12.60
2023-01-19T09:51:50.695Z,13.13
2023-01-19T09:54:22.554Z,9.03
2023-01-19T09:56:53.250Z,23.37
2023-01-19T09:59:26.218Z,7.30
2023-01-19T10:02:19.793Z,10.93
2023-01-19T10:05:00.907Z,16.90
2023-01-19T10:07:55.859Z,5.10
2023-01-19T10:10:28.596Z,11.77
2023-01-19T10:13:11.208Z,11.20
2023-01-19T10:15:48.996Z,10.97
2023-01-19T10:18:33.113Z,9.13
2023-01-19T10:21:08.749Z,7.53
2023-01-19T10:23:43.997Z,11.57
2023-01-19T10:26:18.831Z,12.73
2023-01-19T10:28:52.205Z,10.27
2023-01-19T10:31:25.780Z,11.63
2023-01-19T10:33:58.789Z,8.07
2023-01-19T10:36:32.357Z,5.97
2023-01-19T10:39:02.703Z,7.37
2023-01-19T10:41:38.804Z,14.10
2023-01-19T10:44:10.737Z,7.13
2023-01-19T10:46:46.670Z,9.40
2023-01-19T10:49:31.576Z,11.67
2023-01-19T10:52:02.802Z,16.37
2023-01-19T10:54:36.328Z,11.73
2023-01-19T10:57:12.356Z,13.53
2023-01-19T10:59:51.546Z,8.37
2023-01-19T11:02:26.609Z,7.03
2023-01-19T11:05:01.636Z,11.97
2023-01-19T11:07:33.607Z,10.57
2023-01-19T11:10:25.938Z,11.23
2023-01-19T11:13:04.079Z,9.37
2023-01-19T11:15:37.298Z,9.40
2023-01-19T11:18:08.966Z,11.43
2023-01-19T11:20:55.192Z,11.23
2023-01-19T11:23:29.636Z,11.97
2023-01-19T11:26:02.406Z,10.27
2023-01-19T11:28:35.691Z,7.00
2023-01-19T11:31:19.567Z,10.80
2023-01-19T11:33:53.646Z,14.50
2023-01-19T11:36:28.669Z,10.80
2023-01-19T11:39:00.486Z,11.07
2023-01-19T11:41:32.493Z,12.40
2023-01-19T11:44:12.623Z,11.20
2023-01-19T11:46:47.941Z,13.10
2023-01-19T11:49:24.969Z,15.43
2023-01-19T11:52:04.916Z,10.73
2023-01-19T11:54:38.913Z,10.27
2023-01-19T11:57:15.550Z,13.87
2023-01-19T11:59:47.824Z,12.10
2023-01-19T12:02:28.210Z,11.93
2023-01-19T12:05:02.439Z,13.57
2023-01-19T12:07:39.051Z,11.27
2023-01-19T12:10:23.378Z,10.90
2023-01-19T12:12:55.381Z,12.30
2023-01-19T12:15:32.195Z,12.17
2023-01-19T12:18:04.951Z,10.53
2023-01-19T12:20:39.800Z,11.30
2023-01-19T12:23:27.773Z,10.27
2023-01-19T12:26:11.708Z,10.10
2023-01-19T12:28:45.208Z,11.17
2023-01-19T12:31:18.723Z,14.33
2023-01-19T12:33:49.883Z,19.07
2023-01-19T12:36:38.594Z,15.03
2023-01-19T12:39:19.559Z,17.00
2023-01-19T12:41:51.204Z,12.27
2023-01-19T12:44:34.255Z,13.13
2023-01-19T12:47:24.430Z,14.30
2023-01-19T12:49:59.578Z,17.80
2023-01-19T12:52:34.464Z,16.03
2023-01-19T12:55:19.434Z,11.73
2023-01-19T12:58:03.629Z,12.20
2023-01-19T13:00:37.150Z,17.23
2023-01-19T13:03:23.670Z,13.97
2023-01-19T13:05:56.469Z,16.63
2023-01-19T13:08:29.901Z,23.07
2023-01-19T13:11:27.108Z,22.13
2023-01-19T13:14:31.358Z,15.77
2023-01-19T13:17:29.485Z,15.87
2023-01-19T13:20:28.210Z,11.63
2023-01-19T13:23:21.627Z,16.37
2023-01-19T13:25:56.163Z,14.17
2023-01-19T13:28:35.161Z,16.13
2023-01-19T13:31:07.091Z,8.03
2023-01-19T13:33:46.776Z,13.07
2023-01-19T13:36:24.229Z,12.27
2023-01-19T13:38:55.631Z,14.03
2023-01-19T13:41:28.932Z,12.70
2023-01-19T13:44:06.110Z,10.07
2023-01-19T13:46:38.515Z,13.93
2023-01-19T13:49:20.422Z,16.33
2023-01-19T13:52:07.127Z,15.47
2023-01-19T13:54:37.484Z,16.33
2023-01-19T13:57:24.573Z,13.90
2023-01-19T14:00:11.926Z,14.93
2023-01-19T14:02:43.261Z,13.37
2023-01-19T14:05:17.972Z,16.27
2023-01-19T14:07:48.203Z,19.13
2023-01-19T14:10:19.403Z,21.37
2023-01-19T14:13:00.527Z,18.97
2023-01-19T14:15:35.678Z,14.10
2023-01-19T14:18:27.086Z,15.60
2023-01-19T14:21:01.018Z,15.50
2023-01-19T14:23:43.419Z,16.37
2023-01-19T14:26:46.486Z,16.40
2023-01-19T14:29:29.550Z,16.10
2023-01-19T14:32:16.336Z,18.83
2023-01-19T14:34:49.699Z,20.23
2023-01-19T14:37:23.552Z,17.97
2023-01-19T14:39:57.881Z,14.87
2023-01-19T14:42:31.506Z,17.93
2023-01-19T14:45:03.717Z,16.73
2023-01-19T14:47:39.664Z,15.20
2023-01-19T14:50:21.225Z,19.47
2023-01-19T14:52:55.633Z,24.43
2023-01-19T14:55:28.994Z,16.67
2023-01-19T14:57:59.328Z,18.43
2023-01-19T15:00:29.798Z,16.03
2023-01-19T15:03:02.639Z,16.90
2023-01-19T15:05:32.673Z,13.87
2023-01-19T15:08:05.548Z,16.27
2023-01-19T15:10:37.831Z,15.13
2023-01-19T15:13:08.348Z,17.43
2023-01-19T15:15:38.557Z,19.27
2023-01-19T15:18:18.095Z,20.10
2023-01-19T15:20:48.139Z,15.10
2023-01-19T15:23:18.329Z,17.63
2023-01-19T15:25:48.269Z,19.73
2023-01-19T15:28:21.631Z,19.90
2023-01-19T15:30:53.789Z,17.47
2023-01-19T15:33:30.393Z,18.97
2023-01-19T15:36:00.396Z,15.60
2023-01-19T15:38:30.794Z,15.57
2023-01-19T15:41:00.803Z,14.60
2023-01-19T15:43:31.270Z,20.63
2023-01-19T15:46:06.341Z,17.67
2023-01-19T15:48:39.248Z,16.67
2023-01-19T15:51:13.065Z,18.33
2023-01-19T15:53:43.884Z,16.27
2023-01-19T15:56:18.108Z,17.47
2023-01-19T15:58:48.886Z,16.17
2023-01-19T16:01:21.362Z,19.20
2023-01-19T16:03:54.443Z,18.37
2023-01-19T16:06:24.808Z,18.40
2023-01-19T16:08:59.218Z,18.90
2023-01-19T16:11:30.259Z,17.30
2023-01-19T16:14:01.236Z,17.70
2023-01-19T16:16:31.757Z,17.17
2023-01-19T16:19:04.983Z,16.73
2023-01-19T16:21:34.895Z,15.10
2023-01-19T16:24:05.189Z,15.63
2023-01-19T16:26:37.543Z,14.60
2023-01-19T16:29:10.997Z,14.80
2023-01-19T16:31:42.735Z,17.63
2023-01-19T16:34:16.036Z,16.57
2023-01-19T16:36:46.032Z,15.60
2023-01-19T16:39:17.541Z,13.23
2023-01-19T16:41:48.358Z,19.57
2023-01-19T16:44:19.325Z,17.40
2023-01-19T16:46:51.240Z,13.53
2023-01-19T16:49:28.274Z,19.90
2023-01-19T16:51:59.463Z,18.27
2023-01-19T16:54:32.193Z,16.20
2023-01-19T16:57:02.364Z,16.23
2023-01-19T16:59:32.714Z,16.97
2023-01-19T17:02:04.111Z,15.20
2023-01-19T17:04:37.775Z,18.63
2023-01-19T17:07:07.880Z,17.40
2023-01-19T17:09:38.377Z,14.57
2023-01-19T17:12:12.464Z,18.17
2023-01-19T17:14:43.229Z,15.47
2023-01-19T17:17:13.592Z,18.23
2023-01-19T17:19:47.935Z,17.23
2023-01-19T17:22:17.936Z,16.37
2023-01-19T17:24:49.896Z,16.10
2023-01-19T17:27:19.931Z,15.17
2023-01-19T17:29:51.959Z,16.43
2023-01-19T17:32:22.099Z,19.23
2023-01-19T17:34:55.116Z,27.93
2023-01-19T17:37:25.066Z,21.67
2023-01-19T17:39:55.330Z,21.03
2023-01-19T17:42:25.236Z,24.37
2023-01-19T17:44:55.660Z,30.03
2023-01-19T17:47:26.068Z,30.20
2023-01-19T17:49:59.548Z,24.23
2023-01-19T17:52:29.914Z,18.40
2023-01-19T17:55:00.458Z,26.40
2023-01-19T17:57:31.119Z,18.50
2023-01-19T18:00:03.376Z,15.67
2023-01-19T18:02:34.490Z,19.07
2023-01-19T18:05:12.588Z,19.53
2023-01-19T18:07:42.956Z,19.13
2023-01-19T18:10:14.565Z,18.73
2023-01-19T18:12:45.232Z,17.77
2023-01-19T18:15:17.015Z,22.97
2023-01-19T18:17:47.131Z,20.23
2023-01-19T18:20:20.205Z,16.37
2023-01-19T18:22:50.500Z,17.43
2023-01-19T18:25:20.807Z,20.50
2023-01-19T18:27:50.870Z,18.03
2023-01-19T18:30:22.412Z,18.07
2023-01-19T18:32:52.772Z,18.17
2023-01-19T18:35:25.789Z,19.83
2023-01-19T18:37:57.021Z,18.33
2023-01-19T18:40:27.355Z,16.63
2023-01-19T18:42:58.077Z,20.77
2023-01-19T18:45:28.648Z,18.27
2023-01-19T18:47:58.591Z,15.67
2023-01-19T18:50:31.488Z,15.23
2023-01-19T18:53:01.639Z,18.40
2023-01-19T18:55:31.870Z,18.70
2023-01-19T18:58:04.206Z,16.40
2023-01-19T19:00:34.492Z,17.73
2023-01-19T19:03:07.242Z,17.87
2023-01-19T19:05:40.743Z,20.00
2023-01-19T19:08:11.217Z,18.37
2023-01-19T19:10:43.486Z,20.93
2023-01-19T19:13:15.323Z,17.70
2023-01-19T19:15:46.176Z,16.63
2023-01-19T19:18:16.327Z,16.67
2023-01-19T19:20:49.305Z,17.83
2023-01-19T19:23:19.223Z,16.50
2023-01-19T19:25:49.620Z,18.03
2023-01-19T19:28:19.545Z,17.43
2023-01-19T19:30:52.582Z,17.00
2023-01-19T19:33:22.533Z,15.30
2023-01-19T19:36:01.879Z,17.13
2023-01-19T19:38:31.903Z,19.43
2023-01-19T19:41:07.071Z,14.83
2023-01-19T19:43:38.122Z,16.80
2023-01-19T19:46:11.108Z,16.23
2023-01-19T19:48:42.351Z,16.07
2023-01-19T19:51:19.044Z,16.77
2023-01-19T19:53:51.755Z,18.20
2023-01-19T19:56:24.610Z,16.80
2023-01-19T19:58:57.345Z,17.30
2023-01-19T20:01:33.445Z,16.73
2023-01-19T20:04:08.811Z,18.07
2023-01-19T20:06:44.682Z,17.63
2023-01-19T20:09:16.687Z,19.53
2023-01-19T20:11:51.416Z,19.37
2023-01-19T20:14:22.528Z,19.17
2023-01-19T20:16:54.365Z,17.33
2023-01-19T20:19:24.304Z,17.77
2023-01-19T20:21:57.977Z,16.43
2023-01-19T20:24:28.188Z,19.73
2023-01-19T20:26:58.887Z,17.77
2023-01-19T20:29:29.519Z,15.40
2023-01-19T20:32:00.047Z,18.87
2023-01-19T20:34:33.660Z,21.00
2023-01-19T20:37:06.699Z,17.33
2023-01-19T20:39:37.258Z,17.30
2023-01-19T20:42:11.281Z,20.37
2023-01-19T20:44:41.233Z,17.57
2023-01-19T20:47:12.505Z,18.97
2023-01-19T20:49:43.052Z,19.00
2023-01-19T20:52:15.939Z,18.13
2023-01-19T20:54:45.877Z,16.77
2023-01-19T20:57:16.645Z,17.37
2023-01-19T20:59:46.573Z,16.63
2023-01-19T21:02:17.460Z,18.10
2023-01-19T21:04:47.491Z,19.07
2023-01-19T21:07:20.530Z,22.00
2023-01-19T21:09:50.573Z,15.33
2023-01-19T21:12:22.954Z,14.87
2023-01-19T21:14:52.951Z,18.00
2023-01-19T21:17:23.817Z,15.53
2023-01-19T21:19:53.922Z,13.93
2023-01-19T21:22:27.257Z,11.33
2023-01-19T21:24:57.292Z,13.97
2023-01-19T21:27:27.867Z,12.30
2023-01-19T21:30:00.843Z,17.70
2023-01-19T21:32:31.588Z,18.73
2023-01-19T21:35:01.519Z,14.97
2023-01-19T21:37:34.741Z,14.73
2023-01-19T21:40:04.720Z,18.27
2023-01-19T21:42:35.150Z,14.73
2023-01-19T21:45:05.444Z,16.80
2023-01-19T21:47:37.390Z,15.07
2023-01-19T21:50:08.086Z,15.43
2023-01-19T21:52:41.087Z,17.13
2023-01-19T21:55:12.175Z,16.73
2023-01-19T21:57:42.533Z,14.37
2023-01-19T22:00:14.099Z,15.57
2023-01-19T22:02:52.081Z,14.60
2023-01-19T22:05:28.571Z,15.27
2023-01-19T22:08:01.358Z,14.53
2023-01-19T22:10:31.467Z,15.70
2023-01-19T22:13:01.780Z,13.47
2023-01-19T22:15:33.311Z,15.27
2023-01-19T22:18:03.893Z,14.47
2023-01-19T22:20:34.402Z,13.80
2023-01-19T22:23:07.542Z,15.90
2023-01-19T22:25:37.755Z,16.80
2023-01-19T22:28:08.317Z,15.20
2023-01-19T22:30:38.614Z,8.30
2023-01-19T22:33:09.311Z,17.53
2023-01-19T22:35:39.592Z,17.00
2023-01-19T22:38:12.743Z,19.33
2023-01-19T22:40:42.996Z,16.67
2023-01-19T22:43:13.606Z,16.27
2023-01-19T22:45:44.235Z,19.97
2023-01-19T22:48:14.919Z,15.33
2023-01-19T22:50:45.237Z,19.97
2023-01-19T22:53:18.457Z,16.50
2023-01-19T22:55:48.644Z,19.27
2023-01-19T22:58:34.846Z,16.67
2023-01-19T23:01:08.021Z,14.93
2023-01-19T23:03:39.255Z,18.97
2023-01-19T23:06:11.633Z,18.50
2023-01-19T23:08:45.089Z,14.40
2023-01-19T23:11:17.482Z,18.87
2023-01-19T23:13:47.925Z,16.27
2023-01-19T23:16:18.754Z,17.30
2023-01-19T23:18:49.242Z,17.73
2023-01-19T23:21:21.151Z,20.40
2023-01-19T23:23:56.921Z,21.00
2023-01-19T23:26:28.068Z,19.77
2023-01-19T23:29:00.495Z,21.80
2023-01-19T23:31:33.050Z,22.63
2023-01-19T23:34:05.059Z,35.97
2023-01-19T23:36:36.975Z,29.67
2023-01-19T23:39:14.599Z,18.07
2023-01-19T23:41:45.266Z,24.83
2023-01-19T23:44:17.145Z,23.67
2023-01-19T23:46:47.330Z,32.67
2023-01-19T23:49:18.173Z,24.27
2023-01-19T23:51:48.051Z,21.33
2023-01-19T23:54:21.115Z,21.47
2023-01-19T23:56:51.207Z,33.17
2023-01-19T23:59:21.599Z,19.90
